createdAt,value
2018-09-09T00:00:30.507Z,99.99
2018-09-09T00:01:30.430Z,99.99
2018-09-09T00:03:23.195Z,99.99
2018-09-09T00:04:23.130Z,99.99
2018-09-09T00:06:15.902Z,99.99
2018-09-09T00:07:15.829Z,99.99
2018-09-09T00:09:08.596Z,99.99
2018-09-09T00:10:08.528Z,99.99
2018-09-09T00:12:01.291Z,99.99
2018-09-09T00:13:01.217Z,99.99
2018-09-09T00:14:54.001Z,99.99
2018-09-09T00:15:53.928Z,99.99
2018-09-09T00:17:46.683Z,99.99
2018-09-09T00:18:46.623Z,99.99
2018-09-09T00:20:39.397Z,99.99
2018-09-09T00:21:39.320Z,99.99
2018-09-09T00:23:32.090Z,99.99
2018-09-09T00:24:32.025Z,99.99
2018-09-09T00:26:24.802Z,99.99
2018-09-09T00:27:24.733Z,99.99
2018-09-09T00:29:17.482Z,99.99
2018-09-09T00:30:17.414Z,99.99
2018-09-09T00:32:10.230Z,99.99
2018-09-09T00:33:10.145Z,99.99
2018-09-09T00:35:02.915Z,99.99
2018-09-09T00:36:02.839Z,99.99
2018-09-09T00:37:55.617Z,99.99
2018-09-09T00:38:55.547Z,99.99
2018-09-09T00:40:48.321Z,99.99
2018-09-09T00:41:48.236Z,99.99
2018-09-09T00:43:41.029Z,99.99
2018-09-09T00:44:40.980Z,99.99
2018-09-09T00:46:33.742Z,99.99
2018-09-09T00:47:33.667Z,99.99
2018-09-09T00:49:26.427Z,99.99
2018-09-09T00:50:26.362Z,99.99
2018-09-09T00:52:19.138Z,99.99
2018-09-09T00:53:19.059Z,99.99
2018-09-09T00:55:11.836Z,99.99
2018-09-09T00:56:11.762Z,99.99
2018-09-09T00:58:04.531Z,99.99
2018-09-09T00:59:04.464Z,99.99
2018-09-09T01:00:57.230Z,99.99
2018-09-09T01:01:57.154Z,99.99
2018-09-09T01:03:49.940Z,99.99
2018-09-09T01:04:49.856Z,99.99
2018-09-09T01:06:42.631Z,99.99
2018-09-09T01:07:42.555Z,99.99
2018-09-09T01:09:35.326Z,99.99
2018-09-09T01:10:35.261Z,99.99
2018-09-09T01:12:28.039Z,99.99
2018-09-09T01:13:27.961Z,99.99
2018-09-09T01:15:20.715Z,99.99
2018-09-09T01:16:20.654Z,99.99
2018-09-09T01:18:13.426Z,99.99
2018-09-09T01:19:13.350Z,99.99
2018-09-09T01:21:06.140Z,99.99
2018-09-09T01:22:06.055Z,99.99
2018-09-09T01:23:58.818Z,99.99
2018-09-09T01:24:58.753Z,99.99
2018-09-09T01:26:51.525Z,99.99
2018-09-09T01:27:51.502Z,99.99
2018-09-09T01:29:44.204Z,99.99
2018-09-09T01:30:44.146Z,99.99
2018-09-09T01:32:36.922Z,99.99
2018-09-09T01:33:36.851Z,99.99
2018-09-09T01:35:29.611Z,99.99
2018-09-09T01:36:29.549Z,99.99
2018-09-09T01:38:22.323Z,99.99
2018-09-09T01:39:22.293Z,99.99
2018-09-09T01:41:15.020Z,99.99
2018-09-09T01:42:14.944Z,99.99
2018-09-09T01:44:07.708Z,99.99
2018-09-09T01:45:07.641Z,99.99
2018-09-09T01:47:00.415Z,99.99
2018-09-09T01:48:00.343Z,99.99
2018-09-09T01:49:53.102Z,99.99
2018-09-09T01:50:53.035Z,99.99
2018-09-09T01:52:45.813Z,99.99
2018-09-09T01:53:45.732Z,99.99
2018-09-09T01:55:38.495Z,99.99
2018-09-09T01:56:38.432Z,99.99
2018-09-09T01:58:31.216Z,99.99
2018-09-09T01:59:31.146Z,99.99
2018-09-09T02:01:23.933Z,99.99
2018-09-09T02:02:23.864Z,99.99
2018-09-09T02:04:16.616Z,99.99
2018-09-09T02:05:16.557Z,99.99
2018-09-09T02:07:09.362Z,99.99
2018-09-09T02:08:09.291Z,99.99
2018-09-09T02:10:02.047Z,99.99
2018-09-09T02:11:01.985Z,99.99
2018-09-09T02:12:54.770Z,99.99
2018-09-09T02:13:54.686Z,99.99
2018-09-09T02:15:47.457Z,99.99
2018-09-09T02:16:47.398Z,99.99
2018-09-09T02:18:40.194Z,99.99
2018-09-09T02:19:40.128Z,99.99
2018-09-09T02:21:32.899Z,99.99
2018-09-09T02:22:32.839Z,99.99
2018-09-09T02:24:25.586Z,99.99
2018-09-09T02:25:25.527Z,99.99
2018-09-09T02:27:18.307Z,99.99
2018-09-09T02:28:18.232Z,99.99
2018-09-09T02:30:11.009Z,99.99
2018-09-09T02:31:10.946Z,99.99
2018-09-09T02:33:03.715Z,99.99
2018-09-09T02:34:03.641Z,99.99
2018-09-09T02:35:56.394Z,99.99
2018-09-09T02:36:56.334Z,99.99
2018-09-09T02:38:49.103Z,99.99
2018-09-09T02:39:49.043Z,99.99
2018-09-09T02:41:41.817Z,99.99
2018-09-09T02:42:41.741Z,99.99
2018-09-09T02:44:34.515Z,99.99
2018-09-09T02:45:34.449Z,99.99
2018-09-09T02:47:27.216Z,99.99
2018-09-09T02:48:27.141Z,99.99
2018-09-09T02:50:19.915Z,99.99
2018-09-09T02:51:19.842Z,99.99
2018-09-09T02:53:13.502Z,99.99
2018-09-09T02:54:13.424Z,99.99
2018-09-09T02:56:06.194Z,99.99
2018-09-09T02:57:06.116Z,99.99
2018-09-09T02:58:58.899Z,99.99
2018-09-09T02:59:58.808Z,99.99
2018-09-09T03:01:51.573Z,99.99
2018-09-09T03:02:51.501Z,99.99
2018-09-09T03:04:44.263Z,99.99
2018-09-09T03:05:44.198Z,99.99
2018-09-09T03:07:36.979Z,99.99
2018-09-09T03:08:36.905Z,99.99
2018-09-09T03:10:29.659Z,99.99
2018-09-09T03:11:29.603Z,99.99
2018-09-09T03:13:22.369Z,99.99
2018-09-09T03:14:22.303Z,99.99
2018-09-09T03:16:15.060Z,99.99
2018-09-09T03:17:14.989Z,99.99
2018-09-09T03:19:07.776Z,99.99
2018-09-09T03:20:07.700Z,99.99
2018-09-09T03:22:00.472Z,99.99
2018-09-09T03:23:00.419Z,99.99
2018-09-09T03:24:53.165Z,99.99
2018-09-09T03:25:53.108Z,99.99
2018-09-09T03:27:45.872Z,99.99
2018-09-09T03:28:45.902Z,99.99
2018-09-09T03:30:38.560Z,99.99
2018-09-09T03:31:38.497Z,99.99
2018-09-09T03:33:31.267Z,99.99
2018-09-09T03:34:31.191Z,99.99
2018-09-09T03:36:23.962Z,99.99
2018-09-09T03:37:23.894Z,99.99
2018-09-09T03:39:16.686Z,99.99
2018-09-09T03:40:16.598Z,99.99
2018-09-09T03:42:09.372Z,99.99
2018-09-09T03:43:09.302Z,99.99
2018-09-09T03:45:02.061Z,99.99
2018-09-09T03:46:02.002Z,99.99
2018-09-09T03:47:55.280Z,99.99
2018-09-09T03:48:55.201Z,99.99
2018-09-09T03:50:47.981Z,99.99
2018-09-09T03:51:47.937Z,99.99
2018-09-09T03:53:40.697Z,99.99
2018-09-09T03:54:40.626Z,99.99
2018-09-09T03:56:33.386Z,99.99
2018-09-09T03:57:33.324Z,99.99
2018-09-09T03:59:26.110Z,99.99
2018-09-09T04:00:26.046Z,99.99
2018-09-09T04:02:18.838Z,99.99
2018-09-09T04:03:18.764Z,99.99
2018-09-09T04:05:11.522Z,99.99
2018-09-09T04:06:11.457Z,99.99
2018-09-09T04:08:04.260Z,99.99
2018-09-09T04:09:04.158Z,99.99
2018-09-09T04:10:56.970Z,99.99
2018-09-09T04:11:56.907Z,99.99
2018-09-09T04:13:49.683Z,99.99
2018-09-09T04:14:49.604Z,99.99
2018-09-09T04:16:42.377Z,99.99
2018-09-09T04:17:42.309Z,99.99
2018-09-09T04:19:35.091Z,99.99
2018-09-09T04:20:35.010Z,99.99
2018-09-09T04:22:27.786Z,99.99
2018-09-09T04:23:27.713Z,99.99
2018-09-09T04:25:20.501Z,99.99
2018-09-09T04:26:20.424Z,99.99
2018-09-09T04:28:13.204Z,99.99
2018-09-09T04:29:13.126Z,99.99
2018-09-09T04:31:05.899Z,99.99
2018-09-09T04:32:05.823Z,99.99
2018-09-09T04:33:58.599Z,99.99
2018-09-09T04:34:58.528Z,99.99
2018-09-09T04:36:51.359Z,99.99
2018-09-09T04:37:51.279Z,99.99
2018-09-09T04:39:44.076Z,99.99
2018-09-09T04:40:43.972Z,99.99
2018-09-09T04:42:36.877Z,99.99
2018-09-09T04:43:36.710Z,99.99
2018-09-09T04:45:29.480Z,99.99
2018-09-09T04:46:29.567Z,99.99
2018-09-09T04:48:22.179Z,99.99
2018-09-09T04:49:22.101Z,99.99
2018-09-09T04:51:14.867Z,99.99
2018-09-09T04:52:14.809Z,99.99
2018-09-09T04:54:07.584Z,99.99
2018-09-09T04:55:07.523Z,99.99
2018-09-09T04:57:00.269Z,99.99
2018-09-09T04:58:00.205Z,99.99
2018-09-09T04:59:53.007Z,99.99
2018-09-09T05:00:52.931Z,99.99
2018-09-09T05:02:45.715Z,99.99
2018-09-09T05:03:45.627Z,99.99
2018-09-09T05:05:38.401Z,99.99
2018-09-09T05:06:38.333Z,99.99
2018-09-09T05:08:31.138Z,99.99
2018-09-09T05:09:31.061Z,99.99
2018-09-09T05:11:23.829Z,99.99
2018-09-09T05:12:23.746Z,99.99
2018-09-09T05:14:16.527Z,99.99
2018-09-09T05:15:16.452Z,99.99
2018-09-09T05:17:09.204Z,99.99
2018-09-09T05:18:09.150Z,99.99
2018-09-09T05:20:01.949Z,99.99
2018-09-09T05:21:01.868Z,99.99
2018-09-09T05:22:54.626Z,99.99
2018-09-09T05:23:54.589Z,99.99
2018-09-09T05:25:47.346Z,99.99
2018-09-09T05:26:47.260Z,99.99
2018-09-09T05:28:40.034Z,99.99
2018-09-09T05:29:39.965Z,99.99
2018-09-09T05:31:32.737Z,99.99
2018-09-09T05:32:32.667Z,99.99
2018-09-09T05:34:25.435Z,99.99
2018-09-09T05:35:25.367Z,99.99
2018-09-09T05:37:18.151Z,99.99
2018-09-09T05:38:18.090Z,99.99
2018-09-09T05:40:10.884Z,99.99
2018-09-09T05:41:10.809Z,99.99
2018-09-09T05:43:03.572Z,99.99
2018-09-09T05:44:03.502Z,99.99
2018-09-09T05:45:56.275Z,99.99
2018-09-09T05:46:56.200Z,99.99
2018-09-09T05:48:48.964Z,99.99
2018-09-09T05:49:48.893Z,99.99
2018-09-09T05:51:41.652Z,99.99
2018-09-09T05:52:41.588Z,99.99
2018-09-09T05:54:34.358Z,99.99
2018-09-09T05:55:34.282Z,99.99
2018-09-09T05:57:27.097Z,99.99
2018-09-09T05:58:26.999Z,99.99
2018-09-09T06:00:19.770Z,99.99
2018-09-09T06:01:19.689Z,99.99
2018-09-09T06:03:12.446Z,99.99
2018-09-09T06:04:12.384Z,99.99
2018-09-09T06:06:05.164Z,99.99
2018-09-09T06:07:05.083Z,99.99
2018-09-09T06:08:57.860Z,99.99
2018-09-09T06:09:57.788Z,99.99
2018-09-09T06:11:50.550Z,99.99
2018-09-09T06:12:50.488Z,99.99
2018-09-09T06:14:43.360Z,99.99
2018-09-09T06:15:43.285Z,99.99
2018-09-09T06:17:36.101Z,99.99
2018-09-09T06:18:35.992Z,99.99
2018-09-09T06:20:28.762Z,99.99
2018-09-09T06:21:28.691Z,99.99
2018-09-09T06:23:21.470Z,99.99
2018-09-09T06:24:21.437Z,99.99
2018-09-09T06:26:14.214Z,99.99
2018-09-09T06:27:14.136Z,99.99
2018-09-09T06:29:06.935Z,99.99
2018-09-09T06:30:06.862Z,99.77
2018-09-09T06:31:59.685Z,99.99
2018-09-09T06:32:59.606Z,99.63
2018-09-09T06:34:52.398Z,99.53
2018-09-09T06:35:52.326Z,98.38
2018-09-09T06:37:45.115Z,99.99
2018-09-09T06:38:45.019Z,99.99
2018-09-09T06:40:37.788Z,99.99
2018-09-09T06:41:37.759Z,99.49
2018-09-09T06:43:30.493Z,99.20
2018-09-09T06:44:30.427Z,99.77
2018-09-09T06:46:23.273Z,98.05
2018-09-09T06:47:23.127Z,97.19
2018-09-09T06:49:15.932Z,98.72
2018-09-09T06:50:15.853Z,98.62
2018-09-09T06:52:08.621Z,99.29
2018-09-09T06:53:08.556Z,99.10
2018-09-09T06:55:01.436Z,97.19
2018-09-09T06:56:01.303Z,96.18
2018-09-09T06:57:54.091Z,96.42
2018-09-09T06:58:54.012Z,96.42
2018-09-09T07:00:46.786Z,95.60
2018-09-09T07:01:46.708Z,96.27
2018-09-09T07:03:39.503Z,97.81
2018-09-09T07:04:39.444Z,95.89
2018-09-09T07:06:32.199Z,95.50
2018-09-09T07:07:32.128Z,95.03
2018-09-09T07:09:24.932Z,95.89
2018-09-09T07:10:24.825Z,96.66
2018-09-09T07:12:17.635Z,98.53
2018-09-09T07:13:17.532Z,97.09
2018-09-09T07:15:10.389Z,97.57
2018-09-09T07:16:10.241Z,97.71
2018-09-09T07:18:03.005Z,95.03
2018-09-09T07:19:02.993Z,95.40
2018-09-09T07:20:55.719Z,96.27
2018-09-09T07:21:55.646Z,95.31
2018-09-09T07:23:48.484Z,94.21
2018-09-09T07:24:48.421Z,93.24
2018-09-09T07:26:41.207Z,90.31
2018-09-09T07:27:41.185Z,91.75
2018-09-09T07:29:33.931Z,87.90
2018-09-09T07:30:33.851Z,90.06
2018-09-09T07:32:26.673Z,88.76
2018-09-09T07:33:26.613Z,87.12
2018-09-09T07:35:19.388Z,83.95
2018-09-09T07:36:19.307Z,85.97
2018-09-09T07:38:12.113Z,82.64
2018-09-09T07:39:12.046Z,81.14
2018-09-09T07:41:04.869Z,79.04
2018-09-09T07:42:04.780Z,77.59
2018-09-09T07:43:57.556Z,76.03
2018-09-09T07:44:57.493Z,74.42
2018-09-09T07:46:50.319Z,70.59
2018-09-09T07:47:50.224Z,68.40
2018-09-09T07:49:43.036Z,65.98
2018-09-09T07:50:42.956Z,63.92
2018-09-09T07:52:35.711Z,65.66
2018-09-09T07:53:35.642Z,64.53
2018-09-09T07:55:28.421Z,64.62
2018-09-09T07:56:28.346Z,62.56
2018-09-09T07:58:21.202Z,59.49
2018-09-09T07:59:21.129Z,59.00
2018-09-09T08:01:13.917Z,58.78
2018-09-09T08:02:13.887Z,59.84
2018-09-09T08:04:06.667Z,59.36
2018-09-09T08:05:06.597Z,58.06
2018-09-09T08:06:59.413Z,56.45
2018-09-09T08:07:59.343Z,56.54
2018-09-09T08:09:52.165Z,55.53
2018-09-09T08:10:52.088Z,53.52
2018-09-09T08:12:44.858Z,53.00
2018-09-09T08:13:44.803Z,53.66
2018-09-09T08:15:37.591Z,55.24
2018-09-09T08:16:37.523Z,54.78
2018-09-09T08:18:30.391Z,53.25
2018-09-09T08:19:30.240Z,53.64
2018-09-09T08:21:23.110Z,53.81
2018-09-09T08:22:23.015Z,53.61
2018-09-09T08:24:15.800Z,56.89
2018-09-09T08:25:15.740Z,53.61
2018-09-09T08:27:08.531Z,51.79
2018-09-09T08:28:08.466Z,51.45
2018-09-09T08:30:01.293Z,52.37
2018-09-09T08:31:01.196Z,53.01
2018-09-09T08:32:54.008Z,49.22
2018-09-09T08:33:53.919Z,46.90
2018-09-09T08:35:46.704Z,45.61
2018-09-09T08:36:46.637Z,45.78
2018-09-09T08:38:39.444Z,45.75
2018-09-09T08:39:39.390Z,45.46
2018-09-09T08:41:32.224Z,45.36
2018-09-09T08:42:32.157Z,45.25
2018-09-09T08:44:24.935Z,49.00
2018-09-09T08:45:24.915Z,48.71
2018-09-09T08:47:17.671Z,47.03
2018-09-09T08:48:17.612Z,47.86
2018-09-09T08:50:10.416Z,50.43
2018-09-09T08:51:10.352Z,49.76
2018-09-09T08:53:03.148Z,49.49
2018-09-09T08:54:03.103Z,50.56
2018-09-09T08:55:55.901Z,51.65
2018-09-09T08:56:55.831Z,52.65
2018-09-09T08:58:48.629Z,49.44
2018-09-09T08:59:48.555Z,50.53
2018-09-09T09:01:41.355Z,47.27
2018-09-09T09:02:41.287Z,47.17
2018-09-09T09:04:34.135Z,48.14
2018-09-09T09:05:34.042Z,48.34
2018-09-09T09:07:26.868Z,46.97
2018-09-09T09:08:26.835Z,47.15
2018-09-09T09:10:19.601Z,48.61
2018-09-09T09:11:19.540Z,48.34
2018-09-09T09:13:12.350Z,46.61
2018-09-09T09:14:12.337Z,46.63
2018-09-09T09:16:05.108Z,44.53
2018-09-09T09:17:05.045Z,43.26
2018-09-09T09:18:57.837Z,43.49
2018-09-09T09:19:57.783Z,43.36
2018-09-09T09:21:50.566Z,42.26
2018-09-09T09:22:50.503Z,44.37
2018-09-09T09:24:43.332Z,44.32
2018-09-09T09:25:43.257Z,45.95
2018-09-09T09:27:36.065Z,46.78
2018-09-09T09:28:36.037Z,46.80
2018-09-09T09:30:28.822Z,45.09
2018-09-09T09:31:28.745Z,44.14
2018-09-09T09:33:21.520Z,42.79
2018-09-09T09:34:21.478Z,42.32
2018-09-09T09:36:14.337Z,43.48
2018-09-09T09:37:14.238Z,43.08
2018-09-09T09:39:07.067Z,43.26
2018-09-09T09:40:06.988Z,42.22
2018-09-09T09:41:59.798Z,42.22
2018-09-09T09:42:59.733Z,41.44
2018-09-09T09:44:52.596Z,39.90
2018-09-09T09:45:52.499Z,41.66
2018-09-09T09:47:45.310Z,39.72
2018-09-09T09:48:45.243Z,40.68
2018-09-09T09:50:38.033Z,39.62
2018-09-09T09:51:37.984Z,39.72
2018-09-09T09:53:30.855Z,40.23
2018-09-09T09:54:30.735Z,40.55
2018-09-09T09:56:23.546Z,42.61
2018-09-09T09:57:23.489Z,40.74
2018-09-09T09:59:16.295Z,41.05
2018-09-09T10:00:16.240Z,40.37
2018-09-09T10:02:09.045Z,40.06
2018-09-09T10:03:08.988Z,40.43
2018-09-09T10:05:01.798Z,40.72
2018-09-09T10:06:01.744Z,41.60
2018-09-09T10:07:54.552Z,41.89
2018-09-09T10:08:54.528Z,41.25
2018-09-09T10:10:47.278Z,40.74
2018-09-09T10:11:47.229Z,40.35
2018-09-09T10:13:40.085Z,39.86
2018-09-09T10:14:40.028Z,39.55
2018-09-09T10:16:32.839Z,39.92
2018-09-09T10:17:32.772Z,40.50
2018-09-09T10:19:25.625Z,41.28
2018-09-09T10:20:25.579Z,41.50
2018-09-09T10:22:18.411Z,39.75
2018-09-09T10:23:18.353Z,39.94
2018-09-09T10:25:11.157Z,40.21
2018-09-09T10:26:11.120Z,41.19
2018-09-09T10:28:03.984Z,41.44
2018-09-09T10:29:03.862Z,41.91
2018-09-09T10:30:56.698Z,41.81
2018-09-09T10:31:56.596Z,42.10
2018-09-09T10:33:49.455Z,42.30
2018-09-09T10:34:49.362Z,42.71
2018-09-09T10:36:42.167Z,41.93
2018-09-09T10:37:42.139Z,42.18
2018-09-09T10:39:34.904Z,43.01
2018-09-09T10:40:34.858Z,44.86
2018-09-09T10:42:27.695Z,44.10
2018-09-09T10:43:27.624Z,44.52
2018-09-09T10:45:20.425Z,43.93
2018-09-09T10:46:20.504Z,41.89
2018-09-09T10:48:13.184Z,42.96
2018-09-09T10:49:13.106Z,43.64
2018-09-09T10:51:05.915Z,43.64
2018-09-09T10:52:05.863Z,42.88
2018-09-09T10:53:58.663Z,43.37
2018-09-09T10:54:58.592Z,42.80
2018-09-09T10:56:51.408Z,41.36
2018-09-09T10:57:51.395Z,40.58
2018-09-09T10:59:44.152Z,40.58
2018-09-09T11:00:44.101Z,39.69
2018-09-09T11:02:36.915Z,41.54
2018-09-09T11:03:36.840Z,39.88
2018-09-09T11:05:29.675Z,39.47
2018-09-09T11:06:29.616Z,39.57
2018-09-09T11:08:22.423Z,40.55
2018-09-09T11:09:22.357Z,39.65
2018-09-09T11:11:15.165Z,40.89
2018-09-09T11:12:15.140Z,41.06
2018-09-09T11:14:08.759Z,41.16
2018-09-09T11:15:08.680Z,41.16
2018-09-09T11:17:01.496Z,42.43
2018-09-09T11:18:01.430Z,41.65
2018-09-09T11:19:54.259Z,41.57
2018-09-09T11:20:54.204Z,41.06
2018-09-09T11:22:47.070Z,41.57
2018-09-09T11:23:46.998Z,42.84
2018-09-09T11:25:39.828Z,40.29
2018-09-09T11:26:39.786Z,41.75
2018-09-09T11:28:32.580Z,41.94
2018-09-09T11:29:32.507Z,40.88
2018-09-09T11:31:25.347Z,41.42
2018-09-09T11:32:25.293Z,41.80
2018-09-09T11:34:18.090Z,42.58
2018-09-09T11:35:18.027Z,42.85
2018-09-09T11:37:10.911Z,43.54
2018-09-09T11:38:10.844Z,42.74
2018-09-09T11:40:03.619Z,43.78
2018-09-09T11:41:03.560Z,43.78
2018-09-09T11:42:56.369Z,45.53
2018-09-09T11:43:56.272Z,45.14
2018-09-09T11:45:49.083Z,45.14
2018-09-09T11:46:49.021Z,44.85
2018-09-09T11:48:41.831Z,44.56
2018-09-09T11:49:41.775Z,45.24
2018-09-09T11:51:34.553Z,44.56
2018-09-09T11:52:34.486Z,44.95
2018-09-09T11:54:27.289Z,45.34
2018-09-09T11:55:27.207Z,45.14
2018-09-09T11:57:20.004Z,44.37
2018-09-09T11:58:19.950Z,44.24
2018-09-09T12:00:12.698Z,44.15
2018-09-09T12:01:12.635Z,44.44
2018-09-09T12:03:05.416Z,44.51
2018-09-09T12:04:05.349Z,45.10
2018-09-09T12:05:58.194Z,46.45
2018-09-09T12:06:58.067Z,46.36
2018-09-09T12:08:50.878Z,45.78
2018-09-09T12:09:50.806Z,46.16
2018-09-09T12:11:43.579Z,46.58
2018-09-09T12:12:43.535Z,45.70
2018-09-09T12:14:36.329Z,45.61
2018-09-09T12:15:36.279Z,45.12
2018-09-09T12:17:29.066Z,44.92
2018-09-09T12:18:28.985Z,44.81
2018-09-09T12:20:21.768Z,44.90
2018-09-09T12:21:21.702Z,46.45
2018-09-09T12:23:14.477Z,46.55
2018-09-09T12:24:14.411Z,45.58
2018-09-09T12:26:07.184Z,46.75
2018-09-09T12:27:07.127Z,46.96
2018-09-09T12:28:59.905Z,46.38
2018-09-09T12:29:59.842Z,45.58
2018-09-09T12:31:52.616Z,45.87
2018-09-09T12:32:52.551Z,45.31
2018-09-09T12:34:45.381Z,45.68
2018-09-09T12:35:45.303Z,45.89
2018-09-09T12:37:38.133Z,45.39
2018-09-09T12:38:38.049Z,45.78
2018-09-09T12:40:30.891Z,45.97
2018-09-09T12:41:30.885Z,45.68
2018-09-09T12:43:23.653Z,45.68
2018-09-09T12:44:23.576Z,45.00
2018-09-09T12:46:16.349Z,45.48
2018-09-09T12:47:16.428Z,45.00
2018-09-09T12:49:09.082Z,45.78
2018-09-09T12:50:09.033Z,45.20
2018-09-09T12:52:01.781Z,44.81
2018-09-09T12:53:01.722Z,44.81
2018-09-09T12:54:54.507Z,45.39
2018-09-09T12:55:54.435Z,45.00
2018-09-09T12:57:47.216Z,44.61
2018-09-09T12:58:47.156Z,43.93
2018-09-09T13:00:39.939Z,45.12
2018-09-09T13:01:39.882Z,45.58
2018-09-09T13:03:32.647Z,43.54
2018-09-09T13:04:32.576Z,44.03
2018-09-09T13:06:25.377Z,43.26
2018-09-09T13:07:25.425Z,44.01
2018-09-09T13:09:18.098Z,43.06
2018-09-09T13:10:18.024Z,42.96
2018-09-09T13:12:10.823Z,45.10
2018-09-09T13:13:10.768Z,43.06
2018-09-09T13:15:03.567Z,42.77
2018-09-09T13:16:03.511Z,42.09
2018-09-09T13:17:56.381Z,42.86
2018-09-09T13:18:56.275Z,42.96
2018-09-09T13:20:49.182Z,44.90
2018-09-09T13:21:48.988Z,45.00
2018-09-09T13:23:41.778Z,44.81
2018-09-09T13:24:41.707Z,43.93
2018-09-09T13:26:34.482Z,45.00
2018-09-09T13:27:34.431Z,44.23
2018-09-09T13:29:27.226Z,44.23
2018-09-09T13:30:27.195Z,44.23
2018-09-09T13:32:19.919Z,45.00
2018-09-09T13:33:19.849Z,45.68
2018-09-09T13:35:12.649Z,45.29
2018-09-09T13:36:12.574Z,44.90
2018-09-09T13:38:05.346Z,44.81
2018-09-09T13:39:05.285Z,45.10
2018-09-09T13:40:58.086Z,45.99
2018-09-09T13:41:58.018Z,46.75
2018-09-09T13:43:50.839Z,44.71
2018-09-09T13:44:50.750Z,44.51
2018-09-09T13:46:43.531Z,44.71
2018-09-09T13:47:43.474Z,44.23
2018-09-09T13:49:36.272Z,42.96
2018-09-09T13:50:36.209Z,43.16
2018-09-09T13:52:28.991Z,43.16
2018-09-09T13:53:28.922Z,43.35
2018-09-09T13:55:21.693Z,43.16
2018-09-09T13:56:21.626Z,43.54
2018-09-09T13:58:14.468Z,43.74
2018-09-09T13:59:14.379Z,44.51
2018-09-09T14:01:07.175Z,44.03
2018-09-09T14:02:07.084Z,44.81
2018-09-09T14:03:59.880Z,45.20
2018-09-09T14:04:59.823Z,44.13
2018-09-09T14:06:52.576Z,44.81
2018-09-09T14:07:52.532Z,45.39
2018-09-09T14:09:45.367Z,44.71
2018-09-09T14:10:45.229Z,44.81
2018-09-09T14:12:37.999Z,44.90
2018-09-09T14:13:37.940Z,45.48
2018-09-09T14:15:30.728Z,45.00
2018-09-09T14:16:30.657Z,45.20
2018-09-09T14:18:23.466Z,45.29
2018-09-09T14:19:23.428Z,45.00
2018-09-09T14:21:16.176Z,45.20
2018-09-09T14:22:16.182Z,44.81
2018-09-09T14:24:08.887Z,45.20
2018-09-09T14:25:08.826Z,45.29
2018-09-09T14:27:01.594Z,44.32
2018-09-09T14:28:01.577Z,44.90
2018-09-09T14:29:54.347Z,45.10
2018-09-09T14:30:54.283Z,44.32
2018-09-09T14:32:47.050Z,43.16
2018-09-09T14:33:47.007Z,43.06
2018-09-09T14:35:39.805Z,44.23
2018-09-09T14:36:39.739Z,43.84
2018-09-09T14:38:32.513Z,44.23
2018-09-09T14:39:32.458Z,44.23
2018-09-09T14:41:25.246Z,43.93
2018-09-09T14:42:25.161Z,44.13
2018-09-09T14:44:17.970Z,44.32
2018-09-09T14:45:17.887Z,44.71
2018-09-09T14:47:10.683Z,43.45
2018-09-09T14:48:10.607Z,43.93
2018-09-09T14:50:03.432Z,45.48
2018-09-09T14:51:03.366Z,45.48
2018-09-09T14:52:56.177Z,44.32
2018-09-09T14:53:56.082Z,45.20
2018-09-09T14:55:48.864Z,46.26
2018-09-09T14:56:48.789Z,46.26
2018-09-09T14:58:41.596Z,45.97
2018-09-09T14:59:41.531Z,46.16
2018-09-09T15:01:34.359Z,45.97
2018-09-09T15:02:34.290Z,45.87
2018-09-09T15:04:27.127Z,46.33
2018-09-09T15:05:27.041Z,45.27
2018-09-09T15:07:19.854Z,45.17
2018-09-09T15:08:19.791Z,44.78
2018-09-09T15:10:12.569Z,45.56
2018-09-09T15:11:12.504Z,44.90
2018-09-09T15:13:05.264Z,46.33
2018-09-09T15:14:05.203Z,45.95
2018-09-09T15:15:58.001Z,46.33
2018-09-09T15:16:57.940Z,45.95
2018-09-09T15:18:50.739Z,44.98
2018-09-09T15:19:50.678Z,45.07
2018-09-09T15:21:43.535Z,46.43
2018-09-09T15:22:43.428Z,45.95
2018-09-09T15:24:36.253Z,46.62
2018-09-09T15:25:36.141Z,46.82
2018-09-09T15:27:28.982Z,46.43
2018-09-09T15:28:28.851Z,45.75
2018-09-09T15:30:21.654Z,47.11
2018-09-09T15:31:21.575Z,46.72
2018-09-09T15:33:14.389Z,46.82
2018-09-09T15:34:14.379Z,46.53
2018-09-09T15:36:07.132Z,46.92
2018-09-09T15:37:07.068Z,46.62
2018-09-09T15:38:59.837Z,45.75
2018-09-09T15:39:59.883Z,45.85
2018-09-09T15:41:52.568Z,45.95
2018-09-09T15:42:52.499Z,46.92
2018-09-09T15:44:45.309Z,46.62
2018-09-09T15:45:45.273Z,48.37
2018-09-09T15:47:38.051Z,47.30
2018-09-09T15:48:37.976Z,46.89
2018-09-09T15:50:30.802Z,48.25
2018-09-09T15:51:30.732Z,47.47
2018-09-09T15:53:23.540Z,48.44
2018-09-09T15:54:23.482Z,48.54
2018-09-09T15:56:16.304Z,48.35
2018-09-09T15:57:16.233Z,48.54
2018-09-09T15:59:09.055Z,48.06
2018-09-09T16:00:08.980Z,48.54
2018-09-09T16:02:01.783Z,48.44
2018-09-09T16:03:01.698Z,49.39
2018-09-09T16:04:54.466Z,50.16
2018-09-09T16:05:54.400Z,49.77
2018-09-09T16:07:47.231Z,49.00
2018-09-09T16:08:47.126Z,49.49
2018-09-09T16:10:39.922Z,51.81
2018-09-09T16:11:39.918Z,51.23
2018-09-09T16:13:32.640Z,50.55
2018-09-09T16:14:32.579Z,50.45
2018-09-09T16:16:25.372Z,51.13
2018-09-09T16:17:25.299Z,51.32
2018-09-09T16:19:18.076Z,51.81
2018-09-09T16:20:18.017Z,51.30
2018-09-09T16:22:10.855Z,51.68
2018-09-09T16:23:10.797Z,51.59
2018-09-09T16:25:03.547Z,52.17
2018-09-09T16:26:03.486Z,51.98
2018-09-09T16:27:56.275Z,52.46
2018-09-09T16:28:56.200Z,53.23
2018-09-09T16:30:49.021Z,51.95
2018-09-09T16:31:48.921Z,52.92
2018-09-09T16:33:41.710Z,52.92
2018-09-09T16:34:41.648Z,52.63
2018-09-09T16:36:34.475Z,53.21
2018-09-09T16:37:34.390Z,53.31
2018-09-09T16:39:27.133Z,53.11
2018-09-09T16:40:27.092Z,53.02
2018-09-09T16:42:19.878Z,53.50
2018-09-09T16:43:19.807Z,53.31
2018-09-09T16:45:12.611Z,53.09
2018-09-09T16:46:12.519Z,53.57
2018-09-09T16:48:05.289Z,53.86
2018-09-09T16:49:05.225Z,54.73
2018-09-09T16:50:58.024Z,54.83
2018-09-09T16:51:57.953Z,55.21
2018-09-09T16:53:50.720Z,55.29
2018-09-09T16:54:50.662Z,55.19
2018-09-09T16:56:43.435Z,55.57
2018-09-09T16:57:43.378Z,55.19
2018-09-09T16:59:36.170Z,55.47
2018-09-09T17:00:36.153Z,54.99
2018-09-09T17:02:28.892Z,54.32
2018-09-09T17:03:28.834Z,55.45
2018-09-09T17:05:21.606Z,54.87
2018-09-09T17:06:21.543Z,55.07
2018-09-09T17:08:14.330Z,56.51
2018-09-09T17:09:14.246Z,56.13
2018-09-09T17:11:07.031Z,57.38
2018-09-09T17:12:06.968Z,56.99
2018-09-09T17:13:59.777Z,58.35
2018-09-09T17:14:59.689Z,58.51
2018-09-09T17:16:52.552Z,59.28
2018-09-09T17:17:52.400Z,59.09
2018-09-09T17:19:45.170Z,58.97
2018-09-09T17:20:45.104Z,59.25
2018-09-09T17:22:37.876Z,59.16
2018-09-09T17:23:37.804Z,59.55
2018-09-09T17:25:30.569Z,60.48
2018-09-09T17:26:30.504Z,60.38
2018-09-09T17:28:23.300Z,60.68
2018-09-09T17:29:23.229Z,60.00
2018-09-09T17:31:16.005Z,60.38
2018-09-09T17:32:15.936Z,61.06
2018-09-09T17:34:08.720Z,62.31
2018-09-09T17:35:08.650Z,62.38
2018-09-09T17:37:01.451Z,62.09
2018-09-09T17:38:01.382Z,62.48
2018-09-09T17:39:54.155Z,62.28
2018-09-09T17:40:54.089Z,62.66
2018-09-09T17:42:46.871Z,62.76
2018-09-09T17:43:46.800Z,62.57
2018-09-09T17:45:39.562Z,63.70
2018-09-09T17:46:39.501Z,64.95
2018-09-09T17:48:32.281Z,64.95
2018-09-09T17:49:32.213Z,64.28
2018-09-09T17:51:24.999Z,65.53
2018-09-09T17:52:24.931Z,65.63
2018-09-09T17:54:17.706Z,66.46
2018-09-09T17:55:17.645Z,66.36
2018-09-09T17:57:10.419Z,66.65
2018-09-09T17:58:10.344Z,65.98
2018-09-09T18:00:03.110Z,67.13
2018-09-09T18:01:03.045Z,67.61
2018-09-09T18:02:55.840Z,68.84
2018-09-09T18:03:55.773Z,69.02
2018-09-09T18:05:48.534Z,68.35
2018-09-09T18:06:48.475Z,68.84
2018-09-09T18:08:41.255Z,69.51
2018-09-09T18:09:41.174Z,68.64
2018-09-09T18:11:33.967Z,69.79
2018-09-09T18:12:33.882Z,70.56
2018-09-09T18:14:26.648Z,70.72
2018-09-09T18:15:26.629Z,71.20
2018-09-09T18:17:19.449Z,72.94
2018-09-09T18:18:19.326Z,73.71
2018-09-09T18:20:12.127Z,72.94
2018-09-09T18:21:12.032Z,72.71
2018-09-09T18:23:04.844Z,73.77
2018-09-09T18:24:04.788Z,74.63
2018-09-09T18:25:57.535Z,75.88
2018-09-09T18:26:57.476Z,76.56
2018-09-09T18:28:50.282Z,77.51
2018-09-09T18:29:50.218Z,77.81
2018-09-09T18:31:42.993Z,77.96